createdAt,value
2023-05-11T00:00:40.778Z,69.42
2023-05-11T00:03:08.181Z,69.03
2023-05-11T00:05:35.602Z,68.89
2023-05-11T00:08:02.805Z,69.80
2023-05-11T00:10:31.368Z,68.84
2023-05-11T00:12:58.502Z,69.15
2023-05-11T00:15:25.649Z,68.46
2023-05-11T00:17:52.772Z,69.03
2023-05-11T00:20:21.476Z,69.96
2023-05-11T00:22:48.722Z,70.48
2023-05-11T00:25:15.906Z,70.52
2023-05-11T00:27:45.840Z,72.11
2023-05-11T00:30:15.706Z,69.55
2023-05-11T00:32:44.602Z,68.09
2023-05-11T00:35:12.967Z,67.99
2023-05-11T00:37:40.673Z,70.48
2023-05-11T00:40:08.606Z,70.00
2023-05-11T00:42:36.086Z,68.42
2023-05-11T00:45:03.652Z,69.41
2023-05-11T00:47:30.998Z,66.76
2023-05-11T00:49:58.624Z,66.68
2023-05-11T00:52:25.790Z,67.62
2023-05-11T00:54:52.947Z,71.42
2023-05-11T00:57:21.199Z,67.76
2023-05-11T00:59:49.831Z,69.88
2023-05-11T01:02:17.945Z,68.99
2023-05-11T01:04:45.569Z,68.47
2023-05-11T01:07:35.425Z,69.93
2023-05-11T01:10:20.707Z,69.78
2023-05-11T01:12:58.966Z,70.72
2023-05-11T01:15:52.285Z,68.56
2023-05-11T01:18:42.233Z,71.05
2023-05-11T01:21:11.750Z,69.44
2023-05-11T01:24:09.632Z,69.23
2023-05-11T01:27:34.853Z,73.07
2023-05-11T01:31:10.665Z,72.93
2023-05-11T01:33:53.963Z,73.61
2023-05-11T01:36:24.631Z,72.04
2023-05-11T01:38:54.339Z,70.97
2023-05-11T01:41:23.437Z,69.07
2023-05-11T01:44:04.210Z,66.98
2023-05-11T01:46:34.358Z,70.54
2023-05-11T01:49:07.507Z,70.85
2023-05-11T01:51:38.524Z,67.54
2023-05-11T01:54:11.380Z,71.18
2023-05-11T01:56:41.621Z,71.93
2023-05-11T01:59:10.203Z,71.14
2023-05-11T02:01:43.897Z,72.69
2023-05-11T02:04:13.305Z,72.21
2023-05-11T02:06:43.564Z,72.17
2023-05-11T02:09:12.258Z,71.22
2023-05-11T02:11:40.380Z,70.47
2023-05-11T02:14:10.148Z,68.87
2023-05-11T02:16:38.610Z,70.20
2023-05-11T02:19:09.489Z,69.96
2023-05-11T02:21:38.365Z,67.56
2023-05-11T02:24:08.429Z,66.25
2023-05-11T02:26:35.685Z,64.76
2023-05-11T02:29:02.955Z,65.27
2023-05-11T02:31:32.461Z,67.89
2023-05-11T02:34:20.793Z,62.75
2023-05-11T02:37:00.941Z,64.91
2023-05-11T02:39:38.695Z,67.13
2023-05-11T02:42:21.948Z,65.25
2023-05-11T02:45:23.231Z,67.40
2023-05-11T02:47:56.643Z,64.83
2023-05-11T02:50:25.755Z,63.35
2023-05-11T02:52:59.579Z,63.48
2023-05-11T02:55:29.117Z,64.49
2023-05-11T02:57:56.677Z,60.99
2023-05-11T03:00:23.837Z,63.66
2023-05-11T03:02:51.192Z,61.32
2023-05-11T03:05:18.564Z,66.57
2023-05-11T03:07:45.829Z,69.01
2023-05-11T03:10:15.441Z,68.11
2023-05-11T03:12:43.979Z,66.32
2023-05-11T03:15:12.523Z,65.36
2023-05-11T03:17:40.990Z,65.96
2023-05-11T03:20:09.881Z,65.21
2023-05-11T03:22:37.934Z,66.20
2023-05-11T03:25:07.316Z,65.06
2023-05-11T03:27:35.456Z,63.87
2023-05-11T03:30:08.568Z,62.92
2023-05-11T03:32:36.844Z,64.47
2023-05-11T03:35:04.867Z,65.79
2023-05-11T03:37:33.133Z,65.98
2023-05-11T03:40:03.327Z,62.71
2023-05-11T03:42:33.026Z,60.29
2023-05-11T03:45:01.711Z,61.03
2023-05-11T03:47:29.652Z,59.73
2023-05-11T03:49:57.742Z,61.00
2023-05-11T03:52:25.424Z,61.77
2023-05-11T03:54:53.011Z,60.31
2023-05-11T03:57:20.348Z,59.26
2023-05-11T03:59:47.587Z,57.95
2023-05-11T04:02:14.805Z,59.25
2023-05-11T04:04:42.026Z,62.08
2023-05-11T04:07:09.193Z,62.74
2023-05-11T04:09:36.279Z,62.56
2023-05-11T04:12:03.627Z,61.70
2023-05-11T04:14:30.785Z,61.30
2023-05-11T04:16:57.858Z,63.41
2023-05-11T04:19:25.333Z,62.64
2023-05-11T04:21:52.419Z,62.49
2023-05-11T04:24:19.634Z,61.96
2023-05-11T04:26:46.786Z,60.37
2023-05-11T04:29:13.866Z,61.62
2023-05-11T04:31:40.971Z,61.51
2023-05-11T04:34:08.394Z,61.52
2023-05-11T04:36:36.026Z,62.55
2023-05-11T04:39:04.832Z,61.52
2023-05-11T04:41:34.166Z,60.55
2023-05-11T04:44:01.299Z,60.85
2023-05-11T04:46:28.463Z,60.37
2023-05-11T04:48:55.753Z,59.14
2023-05-11T04:51:22.816Z,58.61
2023-05-11T04:53:50.473Z,57.96
2023-05-11T04:56:21.430Z,57.72
2023-05-11T04:58:48.622Z,57.27
2023-05-11T05:01:17.911Z,55.93
2023-05-11T05:03:49.579Z,55.82
2023-05-11T05:06:16.772Z,56.85
2023-05-11T05:08:44.957Z,56.56
2023-05-11T05:11:12.140Z,57.89
2023-05-11T05:13:40.119Z,55.33
2023-05-11T05:16:07.351Z,55.48
2023-05-11T05:18:34.513Z,55.21
2023-05-11T05:21:01.660Z,53.58
2023-05-11T05:23:28.925Z,52.79
2023-05-11T05:25:56.037Z,52.71
2023-05-11T05:28:23.264Z,52.78
2023-05-11T05:30:50.481Z,52.63
2023-05-11T05:33:30.205Z,51.17
2023-05-11T05:35:57.257Z,50.10
2023-05-11T05:38:24.356Z,51.48
2023-05-11T05:40:52.316Z,52.09
2023-05-11T05:43:19.396Z,51.36
2023-05-11T05:45:46.505Z,50.45
2023-05-11T05:48:13.638Z,50.64
2023-05-11T05:50:40.819Z,51.18
2023-05-11T05:53:08.069Z,51.28
2023-05-11T05:55:35.197Z,49.59
2023-05-11T05:58:02.236Z,50.58
2023-05-11T06:00:29.934Z,50.98
2023-05-11T06:02:57.095Z,49.09
2023-05-11T06:05:27.272Z,47.99
2023-05-11T06:08:09.045Z,47.01
2023-05-11T06:10:37.707Z,46.60
2023-05-11T06:13:04.936Z,46.77
2023-05-11T06:15:32.233Z,47.25
2023-05-11T06:17:59.850Z,48.18
2023-05-11T06:20:26.949Z,46.56
2023-05-11T06:22:53.974Z,47.11
2023-05-11T06:25:21.007Z,46.08
2023-05-11T06:27:48.180Z,49.14
2023-05-11T06:30:15.546Z,46.22
2023-05-11T06:32:42.779Z,48.84
2023-05-11T06:35:10.235Z,46.71
2023-05-11T06:37:37.375Z,46.38
2023-05-11T06:40:05.211Z,45.88
2023-05-11T06:42:32.322Z,46.22
2023-05-11T06:44:59.405Z,44.68
2023-05-11T06:47:29.648Z,46.27
2023-05-11T06:49:56.788Z,44.27
2023-05-11T06:52:23.846Z,44.69
2023-05-11T06:54:51.167Z,44.21
2023-05-11T06:57:18.220Z,44.28
2023-05-11T06:59:45.249Z,43.01
2023-05-11T07:02:12.346Z,44.11
2023-05-11T07:04:39.781Z,45.14
2023-05-11T07:07:07.317Z,42.12
2023-05-11T07:09:38.642Z,42.85
2023-05-11T07:12:06.856Z,43.89
2023-05-11T07:14:34.049Z,43.57
2023-05-11T07:17:01.534Z,45.39
2023-05-11T07:19:28.723Z,44.11
2023-05-11T07:21:55.990Z,43.04
2023-05-11T07:24:23.179Z,44.78
2023-05-11T07:26:51.825Z,42.45
2023-05-11T07:29:21.313Z,42.14
2023-05-11T07:31:48.531Z,39.73
2023-05-11T07:34:16.166Z,40.74
2023-05-11T07:36:43.254Z,41.32
2023-05-11T07:39:11.837Z,41.68
2023-05-11T07:41:39.015Z,42.13
2023-05-11T07:44:06.236Z,43.08
2023-05-11T07:46:33.374Z,41.72
2023-05-11T07:51:45.902Z,40.33
2023-05-11T07:54:13.010Z,40.65
2023-05-11T07:56:40.356Z,39.51
2023-05-11T07:59:10.861Z,39.57
2023-05-11T08:01:38.075Z,39.28
2023-05-11T08:04:05.233Z,39.04
2023-05-11T08:06:32.463Z,39.43
2023-05-11T08:08:59.732Z,39.06
2023-05-11T08:11:27.575Z,40.34
2023-05-11T08:13:54.999Z,37.00
2023-05-11T08:16:22.569Z,39.53
2023-05-11T08:18:50.071Z,38.85
2023-05-11T08:21:17.617Z,40.41
2023-05-11T08:23:47.060Z,39.64
2023-05-11T08:26:14.148Z,41.02
2023-05-11T08:28:41.219Z,40.85
2023-05-11T08:31:08.447Z,40.23
2023-05-11T08:33:38.298Z,41.33
2023-05-11T08:36:07.317Z,38.76
2023-05-11T08:38:36.353Z,35.61
2023-05-11T08:41:04.943Z,37.98
2023-05-11T08:43:35.438Z,38.02
2023-05-11T08:46:08.285Z,38.89
2023-05-11T08:48:35.963Z,37.88
2023-05-11T08:51:03.695Z,36.97
2023-05-11T08:53:31.068Z,35.41
2023-05-11T08:56:01.054Z,37.02
2023-05-11T08:58:29.543Z,35.93
2023-05-11T09:00:58.993Z,35.24
2023-05-11T09:03:29.389Z,34.27
2023-05-11T09:05:57.662Z,39.02
2023-05-11T09:08:30.363Z,38.28
2023-05-11T09:10:58.315Z,35.93
2023-05-11T09:13:25.845Z,38.26
2023-05-11T09:15:53.741Z,36.65
2023-05-11T09:18:20.869Z,36.87
2023-05-11T09:20:50.163Z,34.98
2023-05-11T09:23:24.788Z,35.41
2023-05-11T09:25:51.990Z,34.30
2023-05-11T09:28:27.209Z,33.81
2023-05-11T09:30:54.705Z,33.57
2023-05-11T09:33:25.716Z,33.94
2023-05-11T09:35:54.045Z,36.19
2023-05-11T09:38:23.042Z,35.87
2023-05-11T09:40:56.120Z,33.53
2023-05-11T09:43:30.147Z,35.32
2023-05-11T09:46:07.129Z,34.35
2023-05-11T09:48:35.404Z,34.04
2023-05-11T09:51:07.909Z,32.74
2023-05-11T09:53:43.364Z,31.15
2023-05-11T09:56:12.795Z,33.42
2023-05-11T09:58:57.148Z,32.19
2023-05-11T10:01:35.157Z,29.77
2023-05-11T10:04:21.399Z,28.25
2023-05-11T10:06:53.581Z,30.62
2023-05-11T10:09:27.190Z,32.56
2023-05-11T10:11:55.417Z,31.09
2023-05-11T10:14:24.758Z,32.30
2023-05-11T10:16:53.717Z,32.53
2023-05-11T10:19:21.419Z,34.22
2023-05-11T10:21:49.700Z,32.20
2023-05-11T10:24:18.959Z,30.45
2023-05-11T10:26:48.550Z,27.23
2023-05-11T10:29:19.185Z,30.93
2023-05-11T10:31:48.276Z,28.91
2023-05-11T10:34:16.475Z,31.07
2023-05-11T10:36:48.328Z,27.85
2023-05-11T10:39:16.011Z,26.24
2023-05-11T10:42:00.200Z,24.99
2023-05-11T10:45:21.354Z,24.34
2023-05-11T10:48:09.853Z,25.86
2023-05-11T10:51:22.880Z,24.54
2023-05-11T10:54:15.351Z,29.86
2023-05-11T10:57:13.980Z,25.61
2023-05-11T11:00:43.710Z,25.36
2023-05-11T11:03:15.595Z,28.71
2023-05-11T11:05:45.428Z,28.58
2023-05-11T11:08:13.015Z,26.90
2023-05-11T11:10:49.332Z,31.15
2023-05-11T11:13:22.788Z,32.22
2023-05-11T11:15:56.149Z,33.65
2023-05-11T11:18:36.188Z,31.93
2023-05-11T11:21:04.421Z,31.94
2023-05-11T11:23:40.689Z,34.33
2023-05-11T11:26:10.230Z,34.54
2023-05-11T11:29:01.865Z,36.12
2023-05-11T11:31:32.461Z,35.15
2023-05-11T11:34:28.448Z,34.27
2023-05-11T11:36:55.358Z,35.00
2023-05-11T11:39:25.238Z,37.07
2023-05-11T11:42:15.550Z,36.65
2023-05-11T11:44:44.751Z,33.56
2023-05-11T11:47:17.848Z,35.79
2023-05-11T11:49:49.208Z,35.34
2023-05-11T11:52:35.327Z,32.82
2023-05-11T11:55:05.232Z,32.75
2023-05-11T11:57:35.223Z,34.07
2023-05-11T12:00:12.992Z,32.47
2023-05-11T12:02:46.799Z,32.73
2023-05-11T12:05:22.992Z,30.73
2023-05-11T12:07:53.315Z,30.98
2023-05-11T12:10:23.027Z,32.53
2023-05-11T12:12:58.587Z,31.83
2023-05-11T12:15:34.995Z,32.36
2023-05-11T12:18:03.270Z,33.90
2023-05-11T12:20:30.650Z,32.60
2023-05-11T12:22:57.692Z,33.21
2023-05-11T12:25:26.412Z,32.49
2023-05-11T12:28:02.086Z,31.91
2023-05-11T12:30:33.626Z,30.97
2023-05-11T12:33:04.385Z,30.79
2023-05-11T12:35:34.210Z,30.63
2023-05-11T12:38:02.879Z,29.80
2023-05-11T12:40:32.065Z,29.89
2023-05-11T12:43:00.669Z,30.16
2023-05-11T12:45:29.447Z,30.45
2023-05-11T12:47:58.518Z,30.24
2023-05-11T12:50:25.834Z,30.20
2023-05-11T12:52:53.152Z,29.97
2023-05-11T12:55:32.021Z,26.96
2023-05-11T12:58:19.401Z,29.60
2023-05-11T13:00:59.600Z,28.55
2023-05-11T13:03:32.153Z,30.83
2023-05-11T13:06:10.461Z,31.34
2023-05-11T13:08:43.964Z,31.25
2023-05-11T13:11:26.786Z,30.20
2023-05-11T13:13:56.951Z,29.27
2023-05-11T13:16:33.277Z,29.66
2023-05-11T13:19:05.928Z,30.38
2023-05-11T13:21:33.528Z,28.27
2023-05-11T13:24:03.633Z,27.10
2023-05-11T13:26:32.354Z,28.49
2023-05-11T13:29:10.063Z,27.09
2023-05-11T13:31:53.501Z,26.88
2023-05-11T13:34:25.055Z,27.96
2023-05-11T13:36:52.181Z,27.80
2023-05-11T13:39:21.849Z,28.23
2023-05-11T13:41:48.945Z,27.52
2023-05-11T13:44:16.093Z,28.27
2023-05-11T13:46:43.230Z,29.33
2023-05-11T13:49:11.423Z,28.88
2023-05-11T13:51:38.500Z,29.21
2023-05-11T13:54:06.224Z,28.65
2023-05-11T13:56:33.442Z,27.07
2023-05-11T13:59:03.020Z,27.80
2023-05-11T14:01:30.078Z,26.68
2023-05-11T14:03:57.521Z,28.39
2023-05-11T14:06:26.088Z,28.69
2023-05-11T14:08:55.060Z,29.16
2023-05-11T14:11:23.259Z,28.48
2023-05-11T14:13:51.847Z,27.07
2023-05-11T14:16:20.128Z,24.76
2023-05-11T14:18:48.328Z,26.08
2023-05-11T14:21:15.935Z,24.91
2023-05-11T14:23:53.744Z,26.76
2023-05-11T14:26:25.188Z,25.09
2023-05-11T14:28:52.526Z,25.72
2023-05-11T14:31:22.803Z,26.15
2023-05-11T14:33:50.092Z,25.66
2023-05-11T14:36:17.488Z,24.47
2023-05-11T14:38:46.200Z,24.41
2023-05-11T14:41:15.857Z,25.42
2023-05-11T14:43:43.482Z,27.08
2023-05-11T14:46:10.817Z,26.54
2023-05-11T14:48:38.157Z,28.05
2023-05-11T14:51:05.583Z,28.48
2023-05-11T14:53:32.881Z,26.84
2023-05-11T14:56:00.982Z,27.38
2023-05-11T14:58:28.474Z,28.04
2023-05-11T15:00:55.590Z,28.06
2023-05-11T15:03:24.145Z,27.05
2023-05-11T15:05:51.846Z,27.23
2023-05-11T15:08:29.486Z,26.31
2023-05-11T15:10:57.932Z,26.63
2023-05-11T15:13:27.907Z,27.11
2023-05-11T15:15:55.135Z,28.13
2023-05-11T15:18:22.327Z,26.46
2023-05-11T15:20:49.632Z,28.58
2023-05-11T15:23:17.458Z,29.48
2023-05-11T15:25:45.345Z,30.75
2023-05-11T15:28:13.313Z,30.47
2023-05-11T15:30:41.617Z,30.84
2023-05-11T15:33:10.398Z,30.78
2023-05-11T15:35:38.241Z,31.56
2023-05-11T15:38:06.177Z,31.09
2023-05-11T15:40:33.614Z,32.10
2023-05-11T15:43:01.009Z,32.14
2023-05-11T15:45:29.163Z,31.64
2023-05-11T15:47:57.365Z,32.35
2023-05-11T15:50:26.707Z,32.05
2023-05-11T15:52:53.949Z,32.85
2023-05-11T15:55:21.077Z,31.52
2023-05-11T15:57:48.237Z,32.54
2023-05-11T16:00:17.681Z,32.32
2023-05-11T16:02:48.505Z,32.58
2023-05-11T16:05:15.756Z,32.18
2023-05-11T16:07:42.813Z,32.12
2023-05-11T16:10:10.910Z,32.45
2023-05-11T16:12:38.357Z,31.77
2023-05-11T16:15:06.797Z,31.25
2023-05-11T16:17:34.148Z,31.43
2023-05-11T16:20:02.592Z,32.16
2023-05-11T16:22:30.975Z,31.42
2023-05-11T16:25:04.699Z,31.19
2023-05-11T16:27:32.008Z,31.55
2023-05-11T16:30:11.144Z,30.46
2023-05-11T16:32:43.897Z,30.91
2023-05-11T16:35:11.027Z,30.81
2023-05-11T16:37:38.035Z,30.55
2023-05-11T16:40:06.911Z,31.80
2023-05-11T16:42:34.190Z,31.15
2023-05-11T16:45:01.208Z,32.30
2023-05-11T16:47:28.382Z,31.03
2023-05-11T16:49:55.523Z,31.77
2023-05-11T16:52:22.748Z,30.30
2023-05-11T16:54:49.792Z,31.58
2023-05-11T16:57:16.879Z,31.51
2023-05-11T16:59:44.044Z,31.77
2023-05-11T17:02:11.156Z,32.83
2023-05-11T17:04:38.225Z,32.09
2023-05-11T17:07:05.475Z,31.40
2023-05-11T17:09:32.564Z,31.82
2023-05-11T17:11:59.689Z,32.41
2023-05-11T17:14:27.817Z,31.50
2023-05-11T17:16:54.860Z,31.10
2023-05-11T17:19:21.989Z,31.95
2023-05-11T17:21:49.154Z,33.15
2023-05-11T17:24:16.366Z,31.21
2023-05-11T17:26:48.037Z,33.35
2023-05-11T17:29:16.969Z,33.52
2023-05-11T17:31:46.433Z,32.83
2023-05-11T17:34:13.805Z,32.24
2023-05-11T17:36:41.024Z,33.79
2023-05-11T17:39:08.580Z,33.33
2023-05-11T17:41:36.883Z,33.32
2023-05-11T17:44:05.344Z,33.62
2023-05-11T17:46:32.663Z,34.45
2023-05-11T17:48:59.899Z,34.55
2023-05-11T17:51:29.402Z,34.54
2023-05-11T17:53:56.467Z,33.90
2023-05-11T17:56:24.073Z,34.19
2023-05-11T17:58:51.686Z,33.91
2023-05-11T18:01:19.665Z,33.88
2023-05-11T18:03:47.093Z,35.09
2023-05-11T18:06:14.598Z,33.97
2023-05-11T18:08:41.695Z,34.20
2023-05-11T18:11:13.932Z,33.38
2023-05-11T18:13:41.392Z,34.34
2023-05-11T18:16:09.013Z,34.08
2023-05-11T18:18:36.709Z,34.87
2023-05-11T18:21:07.989Z,35.46
2023-05-11T18:23:35.058Z,35.35
2023-05-11T18:26:02.356Z,35.31
2023-05-11T18:28:29.888Z,35.68
2023-05-11T18:30:57.317Z,35.29
2023-05-11T18:33:24.436Z,35.78
2023-05-11T18:35:52.222Z,36.22
2023-05-11T18:38:19.403Z,36.75
2023-05-11T18:40:46.728Z,38.06
2023-05-11T18:43:16.635Z,38.61
2023-05-11T18:45:45.763Z,38.81
2023-05-11T18:48:12.893Z,38.87
2023-05-11T18:50:40.343Z,39.66
2023-05-11T18:53:08.401Z,38.58
2023-05-11T18:55:44.985Z,38.65
2023-05-11T18:58:20.485Z,39.35
2023-05-11T19:00:49.437Z,39.16
2023-05-11T19:03:19.490Z,40.25
2023-05-11T19:05:48.778Z,39.90
2023-05-11T19:08:16.577Z,41.33
2023-05-11T19:10:45.201Z,40.86
2023-05-11T19:13:15.654Z,41.04
2023-05-11T19:15:44.533Z,42.32
2023-05-11T19:18:11.732Z,42.01
2023-05-11T19:20:39.466Z,42.37
2023-05-11T19:23:06.722Z,41.04
2023-05-11T19:25:36.106Z,41.27
2023-05-11T19:28:03.199Z,41.40
2023-05-11T19:30:30.405Z,41.72
2023-05-11T19:32:57.495Z,42.04
2023-05-11T19:35:26.009Z,42.31
2023-05-11T19:37:54.750Z,42.41
2023-05-11T19:42:55.118Z,42.96
2023-05-11T19:45:22.385Z,44.72
2023-05-11T19:47:49.458Z,45.46
2023-05-11T19:50:17.972Z,43.41
2023-05-11T19:52:46.301Z,44.33
2023-05-11T19:55:13.570Z,44.10
2023-05-11T19:57:41.883Z,45.16
2023-05-11T20:00:09.922Z,45.88
2023-05-11T20:02:37.089Z,46.01
2023-05-11T20:05:05.345Z,46.92
2023-05-11T20:07:32.420Z,46.31
2023-05-11T20:09:59.534Z,47.52
2023-05-11T20:12:26.631Z,45.84
2023-05-11T20:14:53.795Z,46.02
2023-05-11T20:17:21.535Z,45.34
2023-05-11T20:19:48.713Z,45.46
2023-05-11T20:22:17.916Z,46.08
2023-05-11T20:24:44.998Z,46.41
2023-05-11T20:27:12.054Z,46.29
2023-05-11T20:29:40.352Z,45.95
2023-05-11T20:32:09.071Z,45.04
2023-05-11T20:34:36.146Z,44.06
2023-05-11T20:37:03.609Z,45.34
2023-05-11T20:39:30.683Z,45.66
2023-05-11T20:41:59.847Z,45.61
2023-05-11T20:44:27.245Z,45.81
2023-05-11T20:46:54.605Z,45.55
2023-05-11T20:49:37.710Z,47.08
2023-05-11T20:52:07.758Z,47.39
2023-05-11T20:54:35.720Z,47.35
2023-05-11T20:57:04.190Z,45.80
2023-05-11T21:02:02.645Z,45.61
2023-05-11T21:04:31.307Z,45.57
2023-05-11T21:06:58.526Z,46.16
2023-05-11T21:09:25.770Z,46.18
2023-05-11T21:11:52.998Z,45.68
2023-05-11T21:14:20.303Z,44.62
2023-05-11T21:16:47.850Z,46.46
2023-05-11T21:19:21.809Z,46.44
2023-05-11T21:21:49.661Z,47.35
2023-05-11T21:24:17.330Z,46.43
2023-05-11T21:26:48.002Z,45.90
2023-05-11T21:29:15.467Z,47.39
2023-05-11T21:31:42.514Z,47.39
2023-05-11T21:34:09.634Z,46.13
2023-05-11T21:36:38.766Z,46.61
2023-05-11T21:39:05.928Z,45.21
2023-05-11T21:41:35.169Z,45.31
2023-05-11T21:44:02.338Z,45.01
2023-05-11T21:46:29.454Z,45.45
2023-05-11T21:48:56.890Z,44.41
2023-05-11T21:51:24.077Z,44.96
2023-05-11T21:53:51.112Z,45.47
2023-05-11T21:56:18.164Z,45.06
2023-05-11T21:58:45.728Z,46.11
2023-05-11T22:01:12.862Z,45.49
2023-05-11T22:03:40.080Z,44.51
2023-05-11T22:06:07.872Z,43.68
2023-05-11T22:08:34.968Z,44.68
2023-05-11T22:11:02.328Z,45.09
2023-05-11T22:13:29.516Z,44.86
2023-05-11T22:15:56.663Z,45.27
2023-05-11T22:18:23.932Z,44.52
2023-05-11T22:20:51.050Z,43.98
2023-05-11T22:23:18.119Z,44.53
2023-05-11T22:25:45.245Z,44.18
2023-05-11T22:28:12.321Z,43.12
2023-05-11T22:30:39.463Z,43.20
2023-05-11T22:33:06.545Z,43.26
2023-05-11T22:35:33.759Z,42.76
2023-05-11T22:38:01.707Z,43.40
2023-05-11T22:40:30.132Z,43.67
2023-05-11T22:42:57.243Z,42.70
2023-05-11T22:45:24.333Z,42.45
2023-05-11T22:47:51.539Z,42.47
2023-05-11T22:50:18.809Z,43.26
2023-05-11T22:52:47.546Z,43.05
2023-05-11T22:55:14.637Z,42.63
2023-05-11T22:57:41.719Z,43.07
2023-05-11T23:00:10.750Z,41.77
2023-05-11T23:02:38.417Z,41.62
2023-05-11T23:05:07.930Z,42.47
2023-05-11T23:07:35.675Z,42.20
2023-05-11T23:10:02.893Z,42.32
2023-05-11T23:12:29.992Z,42.28
2023-05-11T23:14:57.118Z,42.02
2023-05-11T23:17:24.262Z,42.13
2023-05-11T23:19:51.826Z,41.80
2023-05-11T23:22:18.916Z,42.92
2023-05-11T23:24:46.092Z,42.87
2023-05-11T23:27:13.383Z,42.66
2023-05-11T23:29:40.480Z,42.96
2023-05-11T23:32:07.773Z,43.45
2023-05-11T23:34:34.899Z,43.60
2023-05-11T23:37:03.151Z,43.57
2023-05-11T23:39:30.194Z,44.19
2023-05-11T23:41:57.256Z,43.48
2023-05-11T23:44:24.500Z,43.91
2023-05-11T23:46:51.602Z,45.00
2023-05-11T23:49:18.702Z,44.65
2023-05-11T23:51:45.824Z,44.78
2023-05-11T23:54:13.163Z,44.55
2023-05-11T23:56:40.185Z,44.35
2023-05-11T23:59:07.318Z,44.86
